Tri-Cities Airport Airport (TRI)

 

Airport Diagram
Current Weather/Forecast (VFR Conditions)
METAR KTRI 231153Z 00000KT 10SM BKN250 21/18 A3026 RMK AO2 SLP221 T02060178 10228 20178 53016
TAF KTRI 231120Z 2312/2412 VRB03KT P6SM SCT070 BKN250 TEMPO 2312/2313 5SM BR FM231600 24009KT P6SM SCT060 BKN250 FM240000 VRB02KT P6SM SCT250 TEMPO 2410/2412 5SM BR

All Charts
General
Chart Name Download
AIRPORT DIAGRAM
TAKEOFF MINIMUMS
ALTERNATE MINIMUMS

Departures
Chart Name Download
KINGS ONE
KINGS ONE, CONT.1

Approaches
Chart Name Download
ILS OR LOC RWY 05
ILS OR LOC RWY 23
ILS RWY 23 (SA CAT I)
ILS RWY 23 (CAT II)
RNAV (GPS) RWY 05
RNAV (GPS) RWY 09
RNAV (GPS) RWY 23
RNAV (GPS) RWY 27


Inbound Traffic (Arrivals)

No inbound traffic.


Outbound Traffic (Departures)

No outbound traffic.